createdAt,value
2019-02-08T00:04:32.947Z,17.20
2019-02-08T00:09:35.584Z,16.43
2019-02-08T00:14:38.850Z,17.10
2019-02-08T00:19:41.259Z,18.17
2019-02-08T00:24:43.834Z,16.90
2019-02-08T00:29:46.008Z,17.80
2019-02-08T00:34:48.176Z,17.37
2019-02-08T00:39:50.382Z,16.97
2019-02-08T00:44:52.574Z,17.60
2019-02-08T00:49:54.797Z,18.17
2019-02-08T00:54:58.614Z,18.60
2019-02-08T01:00:01.718Z,18.47
2019-02-08T01:05:08.603Z,18.90
2019-02-08T01:10:16.969Z,19.20
2019-02-08T01:15:20.290Z,19.23
2019-02-08T01:20:23.135Z,18.30
2019-02-08T01:25:26.356Z,18.33
2019-02-08T01:30:29.601Z,18.60
2019-02-08T01:35:32.087Z,19.10
2019-02-08T01:40:36.078Z,19.07
2019-02-08T01:45:38.333Z,18.83
2019-02-08T01:50:40.504Z,17.77
2019-02-08T01:55:43.049Z,17.83
2019-02-08T02:00:45.592Z,17.07
2019-02-08T02:05:48.246Z,17.53
2019-02-08T02:10:50.651Z,18.53
2019-02-08T02:15:53.038Z,18.20
2019-02-08T02:20:55.228Z,17.40
2019-02-08T02:25:57.880Z,18.40
2019-02-08T02:31:00.147Z,17.53
2019-02-08T02:36:03.726Z,17.27
2019-02-08T02:41:06.507Z,17.93
2019-02-08T02:46:09.218Z,17.90
2019-02-08T02:51:12.588Z,18.30
2019-02-08T02:56:14.773Z,19.30
2019-02-08T03:01:17.398Z,17.63
2019-02-08T03:06:21.615Z,18.20
2019-02-08T03:11:24.514Z,18.27
2019-02-08T03:16:27.117Z,17.40
2019-02-08T03:21:29.348Z,18.00
2019-02-08T03:26:32.529Z,17.93
2019-02-08T03:31:34.690Z,17.73
2019-02-08T03:36:37.223Z,17.73
2019-02-08T03:41:39.397Z,17.50
2019-02-08T03:46:41.904Z,16.97
2019-02-08T03:51:44.099Z,16.30
2019-02-08T03:56:47.789Z,15.77
2019-02-08T04:01:50.353Z,16.10
2019-02-08T04:06:53.256Z,15.57
2019-02-08T04:11:55.786Z,16.53
2019-02-08T04:16:58.348Z,15.57
2019-02-08T04:22:00.541Z,15.80
2019-02-08T04:27:03.556Z,14.73
2019-02-08T04:32:05.764Z,14.70
2019-02-08T04:37:08.361Z,15.60
2019-02-08T04:42:10.529Z,14.80
2019-02-08T04:47:13.042Z,15.40
2019-02-08T04:52:15.823Z,15.80
2019-02-08T04:57:19.376Z,15.13
2019-02-08T05:02:21.518Z,14.83
2019-02-08T05:07:23.992Z,14.87
2019-02-08T05:12:26.445Z,15.37
2019-02-08T05:17:28.741Z,14.40
2019-02-08T05:22:31.334Z,14.97
2019-02-08T05:27:34.658Z,14.90
2019-02-08T05:32:38.376Z,14.83
2019-02-08T05:37:40.563Z,14.87
2019-02-08T05:42:42.736Z,15.07
2019-02-08T05:47:45.036Z,14.53
2019-02-08T05:52:47.739Z,15.83
2019-02-08T05:57:50.796Z,15.47
2019-02-08T06:02:53.469Z,14.77
2019-02-08T06:07:56.296Z,14.97
2019-02-08T06:12:59.037Z,14.63
2019-02-08T06:18:01.737Z,13.43
2019-02-08T06:23:05.656Z,13.23
2019-02-08T06:28:08.742Z,13.97
2019-02-08T06:33:11.254Z,12.73
2019-02-08T06:38:14.992Z,13.53
2019-02-08T06:43:17.367Z,12.90
2019-02-08T06:48:20.195Z,13.30
2019-02-08T06:53:22.474Z,14.47
2019-02-08T06:58:37.848Z,13.37
2019-02-08T07:04:02.658Z,13.17
2019-02-08T07:09:15.795Z,14.37
2019-02-08T07:14:30.732Z,12.47
2019-02-08T07:19:59.631Z,13.20
2019-02-08T07:25:24.414Z,13.40
2019-02-08T07:30:55.488Z,12.30
2019-02-08T07:36:09.608Z,12.80
2019-02-08T07:41:23.962Z,12.33
2019-02-08T07:46:33.173Z,12.13
2019-02-08T07:51:56.557Z,13.10
2019-02-08T07:57:15.513Z,12.63
2019-02-08T08:02:26.469Z,10.90
2019-02-08T08:07:47.530Z,11.30
2019-02-08T08:13:15.681Z,11.03
2019-02-08T08:18:43.541Z,9.90
2019-02-08T08:24:12.678Z,10.27
2019-02-08T08:29:35.595Z,9.53
2019-02-08T08:35:04.708Z,9.37
2019-02-08T08:41:03.642Z,9.43
2019-02-08T08:46:45.255Z,9.83
2019-02-08T08:52:49.163Z,8.83
2019-02-08T08:58:26.332Z,9.70
2019-02-08T09:04:28.962Z,8.40
2019-02-08T09:10:30.059Z,8.40
2019-02-08T09:16:34.987Z,7.83
2019-02-08T09:22:12.621Z,7.50
2019-02-08T09:28:10.994Z,6.57
2019-02-08T09:33:58.803Z,6.57
2019-02-08T09:40:00.562Z,6.87
2019-02-08T09:45:56.357Z,5.90
2019-02-08T09:52:10.680Z,5.40
2019-02-08T09:58:30.474Z,5.20
2019-02-08T10:04:27.253Z,4.63
2019-02-08T10:10:35.396Z,5.07
2019-02-08T10:17:00.586Z,4.27
2019-02-08T10:22:58.985Z,4.00
2019-02-08T10:29:04.535Z,4.47
2019-02-08T10:35:32.080Z,4.03
2019-02-08T10:41:30.416Z,4.20
2019-02-08T10:47:15.042Z,4.67
2019-02-08T10:53:09.007Z,4.23
2019-02-08T10:59:20.380Z,4.70
2019-02-08T11:05:28.363Z,5.33
2019-02-08T11:11:17.542Z,5.50
2019-02-08T11:17:32.057Z,6.00
2019-02-08T11:22:34.637Z,5.00
2019-02-08T11:27:36.790Z,4.97
2019-02-08T11:32:43.165Z,5.03
2019-02-08T11:37:43.836Z,4.67
2019-02-08T11:42:46.348Z,5.20
2019-02-08T11:47:48.823Z,4.90
2019-02-08T11:52:51.476Z,4.83
2019-02-08T11:57:53.986Z,5.00
2019-02-08T12:02:56.501Z,4.43
2019-02-08T12:07:59.157Z,4.57
2019-02-08T12:13:01.793Z,5.03
2019-02-08T12:18:04.583Z,4.60
2019-02-08T12:23:07.457Z,4.50
2019-02-08T12:28:10.247Z,5.00
2019-02-08T12:33:13.936Z,4.77
2019-02-08T12:38:16.973Z,4.30
2019-02-08T12:43:39.438Z,4.27
2019-02-08T12:48:41.785Z,4.37
2019-02-08T12:53:44.036Z,4.70
2019-02-08T12:58:47.240Z,4.10
2019-02-08T13:03:49.560Z,4.20
2019-02-08T13:08:52.071Z,4.30
2019-02-08T13:13:54.357Z,4.50
2019-02-08T13:18:56.769Z,4.17
2019-02-08T13:23:59.344Z,4.67
2019-02-08T13:29:02.220Z,4.50
2019-02-08T13:34:05.177Z,4.50
2019-02-08T13:39:09.122Z,4.07
2019-02-08T13:44:13.462Z,5.00
2019-02-08T13:49:15.678Z,4.30
2019-02-08T13:54:18.016Z,4.30
2019-02-08T13:59:21.112Z,4.30
2019-02-08T14:04:23.896Z,3.87
2019-02-08T14:09:26.209Z,4.10
2019-02-08T14:14:29.164Z,4.47
2019-02-08T14:19:32.552Z,5.00
2019-02-08T14:24:35.121Z,5.07
2019-02-08T14:29:38.111Z,4.57
2019-02-08T14:34:43.701Z,4.20
2019-02-08T14:39:47.693Z,3.90
2019-02-08T14:44:50.312Z,4.07
2019-02-08T14:49:53.805Z,3.63
2019-02-08T14:54:56.401Z,4.30
2019-02-08T14:59:59.299Z,4.00
2019-02-08T15:05:02.140Z,4.07
2019-02-08T15:10:10.507Z,3.67
2019-02-08T15:15:13.424Z,3.97
2019-02-08T15:20:23.130Z,4.10
2019-02-08T15:25:26.210Z,3.87
2019-02-08T15:30:31.157Z,3.30
2019-02-08T15:35:35.152Z,3.73
2019-02-08T15:40:41.673Z,3.47
2019-02-08T15:45:51.879Z,3.80
2019-02-08T15:50:54.500Z,3.17
2019-02-08T15:56:02.883Z,2.93
2019-02-08T16:01:09.649Z,2.83
2019-02-08T16:06:12.093Z,2.93
2019-02-08T16:11:14.715Z,3.50
2019-02-08T16:16:17.652Z,3.10
2019-02-08T16:21:20.966Z,3.10
2019-02-08T16:26:24.794Z,2.40
2019-02-08T16:31:27.661Z,3.00
2019-02-08T16:36:30.196Z,3.17
2019-02-08T16:41:32.857Z,3.00
2019-02-08T16:46:35.549Z,2.80
2019-02-08T16:51:38.718Z,2.73
2019-02-08T16:56:41.094Z,3.50
2019-02-08T17:01:43.651Z,5.83
2019-02-08T17:06:46.292Z,3.10
2019-02-08T17:11:48.674Z,3.73
2019-02-08T17:16:51.030Z,3.43
2019-02-08T17:21:53.376Z,3.77
2019-02-08T17:26:56.697Z,3.40
2019-02-08T17:31:58.945Z,3.30
2019-02-08T17:37:01.197Z,3.40
2019-02-08T17:42:04.384Z,3.80
2019-02-08T17:47:06.882Z,3.90
2019-02-08T17:52:09.172Z,3.27
2019-02-08T17:57:11.862Z,3.83
2019-02-08T18:02:15.189Z,3.60
2019-02-08T18:07:17.536Z,3.27
2019-02-08T18:12:19.848Z,3.77
2019-02-08T18:17:22.448Z,3.50
2019-02-08T18:22:25.065Z,3.70
2019-02-08T18:27:27.448Z,4.63
2019-02-08T18:32:29.653Z,3.50
2019-02-08T18:37:32.391Z,4.43
2019-02-08T18:42:37.141Z,5.07
2019-02-08T18:47:40.039Z,4.77
2019-02-08T18:52:44.517Z,4.40
2019-02-08T18:57:47.320Z,4.13
2019-02-08T19:02:50.191Z,4.13
2019-02-08T19:07:53.188Z,3.90
2019-02-08T19:12:55.690Z,4.33
2019-02-08T19:17:58.083Z,4.03
2019-02-08T19:23:00.726Z,4.00
2019-02-08T19:28:05.728Z,4.20
2019-02-08T19:33:10.834Z,4.40
2019-02-08T19:38:13.828Z,4.70
2019-02-08T19:43:16.709Z,4.27
2019-02-08T19:48:20.833Z,3.70
2019-02-08T19:53:23.723Z,4.07
2019-02-08T19:58:34.091Z,4.47
2019-02-08T20:03:30.415Z,4.13
2019-02-08T20:08:32.702Z,4.27
2019-02-08T20:13:34.908Z,3.93
2019-02-08T20:18:37.131Z,4.63
2019-02-08T20:23:39.529Z,4.33
2019-02-08T20:28:42.769Z,3.93
2019-02-08T20:33:46.117Z,4.00
2019-02-08T20:38:48.654Z,4.57
2019-02-08T20:43:51.382Z,4.17
2019-02-08T20:48:54.314Z,3.70
2019-02-08T20:53:56.879Z,3.87
2019-02-08T20:58:59.767Z,4.60
2019-02-08T21:04:02.215Z,4.77
2019-02-08T21:09:12.408Z,4.33
2019-02-08T21:14:15.043Z,4.77
2019-02-08T21:19:17.677Z,4.93
2019-02-08T21:24:19.907Z,4.90
2019-02-08T21:29:22.464Z,4.50
2019-02-08T21:34:24.822Z,5.83
2019-02-08T21:39:27.684Z,5.57
2019-02-08T21:44:30.267Z,5.70
2019-02-08T21:49:33.143Z,5.50
2019-02-08T21:54:37.974Z,5.43
2019-02-08T21:59:40.631Z,5.40
2019-02-08T22:04:42.993Z,6.27
2019-02-08T22:09:45.818Z,6.23
2019-02-08T22:14:48.393Z,5.83
2019-02-08T22:19:50.682Z,5.70
2019-02-08T22:24:53.162Z,6.17
2019-02-08T22:29:55.514Z,6.23
2019-02-08T22:34:58.856Z,6.57
2019-02-08T22:40:01.297Z,6.60
2019-02-08T22:45:09.142Z,5.90
2019-02-08T22:50:12.357Z,6.43
2019-02-08T22:55:17.459Z,6.87
2019-02-08T23:01:26.912Z,6.67
2019-02-08T23:06:29.423Z,6.80
2019-02-08T23:11:32.282Z,6.63
2019-02-08T23:16:34.858Z,6.87
2019-02-08T23:21:37.319Z,7.80
2019-02-08T23:26:40.083Z,7.53
2019-02-08T23:31:42.666Z,7.43
2019-02-08T23:36:45.260Z,7.20
2019-02-08T23:41:48.646Z,7.67
2019-02-08T23:46:51.270Z,7.30
2019-02-08T23:51:54.993Z,7.20
2019-02-08T23:56:58.214Z,7.07
